createdAt,value
2023-02-16T00:02:30.747Z,39.73
2023-02-16T00:05:23.861Z,49.00
2023-02-16T00:08:10.507Z,46.23
2023-02-16T00:11:15.258Z,44.90
2023-02-16T00:14:02.185Z,49.00
2023-02-16T00:16:48.827Z,45.37
2023-02-16T00:19:38.714Z,37.77
2023-02-16T00:22:25.009Z,37.90
2023-02-16T00:25:11.303Z,37.07
2023-02-16T00:27:57.589Z,35.33
2023-02-16T00:30:44.099Z,41.00
2023-02-16T00:33:31.011Z,47.77
2023-02-16T00:36:17.459Z,38.10
2023-02-16T00:39:03.714Z,43.07
2023-02-16T00:41:54.556Z,32.77
2023-02-16T00:44:47.997Z,33.77
2023-02-16T00:47:37.974Z,39.47
2023-02-16T00:50:32.976Z,33.03
2023-02-16T00:53:19.538Z,33.40
2023-02-16T00:56:06.073Z,36.63
2023-02-16T00:58:52.943Z,37.53
2023-02-16T01:01:39.720Z,37.23
2023-02-16T01:04:26.672Z,40.43
2023-02-16T01:07:33.216Z,41.40
2023-02-16T01:10:38.152Z,40.03
2023-02-16T01:13:27.686Z,40.37
2023-02-16T01:16:19.274Z,35.57
2023-02-16T01:19:05.707Z,35.30
2023-02-16T01:21:51.925Z,36.13
2023-02-16T01:24:38.380Z,40.20
2023-02-16T01:27:24.861Z,40.77
2023-02-16T01:30:15.444Z,29.83
2023-02-16T01:33:04.079Z,38.83
2023-02-16T01:35:53.479Z,37.97
2023-02-16T01:38:40.088Z,29.77
2023-02-16T01:41:32.856Z,34.23
2023-02-16T01:44:51.402Z,32.60
2023-02-16T01:47:47.778Z,35.70
2023-02-16T01:50:54.364Z,30.87
2023-02-16T01:54:16.284Z,32.47
2023-02-16T01:57:23.139Z,32.13
2023-02-16T02:00:15.351Z,26.27
2023-02-16T02:03:23.067Z,24.07
2023-02-16T02:06:18.014Z,33.30
2023-02-16T02:09:29.033Z,29.33
2023-02-16T02:12:44.286Z,25.37
2023-02-16T02:15:32.747Z,31.13
2023-02-16T02:18:19.298Z,37.53
2023-02-16T02:21:43.187Z,33.43
2023-02-16T02:24:39.069Z,31.47
2023-02-16T02:27:31.252Z,27.20
2023-02-16T02:30:37.587Z,33.17
2023-02-16T02:34:03.509Z,32.03
2023-02-16T02:36:58.812Z,34.00
2023-02-16T02:39:54.179Z,29.17
2023-02-16T02:43:11.789Z,30.63
2023-02-16T02:46:11.717Z,31.57
2023-02-16T02:48:58.457Z,34.87
2023-02-16T02:51:44.781Z,30.67
2023-02-16T02:54:57.633Z,31.90
2023-02-16T02:58:08.492Z,32.77
2023-02-16T03:00:56.326Z,33.30
2023-02-16T03:03:48.478Z,30.53
2023-02-16T03:06:40.736Z,28.90
2023-02-16T03:09:27.583Z,35.67
2023-02-16T03:12:33.279Z,31.00
2023-02-16T03:15:20.559Z,28.60
2023-02-16T03:18:29.642Z,31.00
2023-02-16T03:21:34.969Z,31.17
2023-02-16T03:24:46.989Z,29.67
2023-02-16T03:27:56.527Z,30.57
2023-02-16T03:30:44.873Z,27.07
2023-02-16T03:33:32.070Z,28.57
2023-02-16T03:36:18.677Z,26.97
2023-02-16T03:39:06.491Z,25.63
2023-02-16T03:41:55.062Z,28.50
2023-02-16T03:44:41.282Z,28.63
2023-02-16T03:47:27.561Z,22.63
2023-02-16T03:50:14.826Z,32.80
2023-02-16T03:53:07.846Z,23.57
2023-02-16T03:55:54.206Z,23.93
2023-02-16T03:58:40.539Z,29.37
2023-02-16T04:01:26.623Z,27.13
2023-02-16T04:04:14.713Z,30.07
2023-02-16T04:07:01.028Z,28.57
2023-02-16T04:09:47.281Z,29.13
2023-02-16T04:12:36.357Z,26.97
2023-02-16T04:15:26.336Z,29.80
2023-02-16T04:18:12.876Z,24.73
2023-02-16T04:20:59.046Z,29.67
2023-02-16T04:23:45.481Z,30.53
2023-02-16T04:26:33.205Z,36.47
2023-02-16T04:29:19.730Z,27.60
2023-02-16T04:32:06.333Z,27.50
2023-02-16T04:34:52.568Z,25.03
2023-02-16T04:37:39.306Z,37.37
2023-02-16T04:40:25.779Z,32.60
2023-02-16T04:43:12.351Z,26.43
2023-02-16T04:45:58.669Z,34.83
2023-02-16T04:48:45.379Z,27.20
2023-02-16T04:51:31.805Z,28.47
2023-02-16T04:54:18.387Z,28.37
2023-02-16T04:57:05.239Z,29.40
2023-02-16T04:59:51.481Z,32.63
2023-02-16T05:02:37.865Z,34.40
2023-02-16T05:05:24.170Z,30.00
2023-02-16T05:08:10.122Z,28.20
2023-02-16T05:11:15.057Z,25.53
2023-02-16T05:14:19.823Z,27.43
2023-02-16T05:17:06.491Z,31.97
2023-02-16T05:19:55.702Z,30.07
2023-02-16T05:22:43.562Z,25.47
2023-02-16T05:25:29.769Z,25.70
2023-02-16T05:28:16.312Z,29.50
2023-02-16T05:31:03.083Z,29.30
2023-02-16T05:33:49.951Z,23.93
2023-02-16T05:36:36.784Z,24.33
2023-02-16T05:39:22.940Z,29.10
2023-02-16T05:42:09.280Z,26.63
2023-02-16T05:44:55.381Z,26.07
2023-02-16T05:47:42.368Z,23.93
2023-02-16T05:50:28.716Z,25.33
2023-02-16T05:53:18.904Z,23.50
2023-02-16T05:56:07.381Z,22.23
2023-02-16T05:58:54.032Z,24.40
2023-02-16T06:01:41.033Z,31.57
2023-02-16T06:04:28.620Z,33.20
2023-02-16T06:07:15.083Z,25.37
2023-02-16T06:10:01.464Z,26.27
2023-02-16T06:12:47.781Z,26.10
2023-02-16T06:15:34.248Z,26.13
2023-02-16T06:18:21.251Z,23.17
2023-02-16T06:21:07.379Z,34.87
2023-02-16T06:23:53.615Z,26.10
2023-02-16T06:26:40.944Z,27.33
2023-02-16T06:29:27.324Z,28.57
2023-02-16T06:32:13.822Z,24.90
2023-02-16T06:35:00.271Z,32.80
2023-02-16T06:37:46.905Z,23.60
2023-02-16T06:40:33.475Z,26.93
2023-02-16T06:43:20.232Z,24.20
2023-02-16T06:46:06.568Z,31.47
2023-02-16T06:48:53.875Z,27.97
2023-02-16T06:51:40.295Z,26.13
2023-02-16T06:54:26.521Z,29.83
2023-02-16T06:57:12.848Z,32.83
2023-02-16T06:59:59.053Z,28.40
2023-02-16T07:02:46.634Z,28.50
2023-02-16T07:05:33.021Z,28.07
2023-02-16T07:08:19.184Z,28.33
2023-02-16T07:11:05.919Z,28.13
2023-02-16T07:13:52.565Z,27.83
2023-02-16T07:16:39.468Z,25.23
2023-02-16T07:19:25.953Z,24.93
2023-02-16T07:22:12.370Z,22.97
2023-02-16T07:25:00.591Z,24.97
2023-02-16T07:27:46.988Z,24.90
2023-02-16T07:30:33.762Z,20.77
2023-02-16T07:33:21.145Z,25.20
2023-02-16T07:36:08.741Z,20.70
2023-02-16T07:38:55.281Z,21.47
2023-02-16T07:41:42.089Z,26.03
2023-02-16T07:44:28.897Z,25.57
2023-02-16T07:47:15.142Z,24.13
2023-02-16T07:50:01.738Z,24.90
2023-02-16T07:52:48.102Z,24.53
2023-02-16T07:55:45.126Z,22.10
2023-02-16T07:58:31.599Z,32.23
2023-02-16T08:01:17.948Z,33.23
2023-02-16T08:04:04.340Z,37.27
2023-02-16T08:06:51.264Z,24.83
2023-02-16T08:09:37.488Z,29.03
2023-02-16T08:12:24.600Z,22.13
2023-02-16T08:15:12.020Z,22.17
2023-02-16T08:17:58.784Z,24.43
2023-02-16T08:21:02.687Z,24.57
2023-02-16T08:23:56.310Z,27.10
2023-02-16T08:26:44.783Z,27.43
2023-02-16T08:29:32.764Z,31.17
2023-02-16T08:32:20.126Z,26.30
2023-02-16T08:35:07.993Z,27.97
2023-02-16T08:37:54.828Z,29.00
2023-02-16T08:40:48.572Z,30.00
2023-02-16T08:43:35.784Z,35.83
2023-02-16T08:46:23.010Z,28.70
2023-02-16T08:49:11.215Z,33.50
2023-02-16T08:51:58.843Z,30.73
2023-02-16T08:54:45.269Z,30.10
2023-02-16T08:57:35.796Z,34.20
2023-02-16T09:00:34.556Z,33.17
2023-02-16T09:03:21.146Z,28.57
2023-02-16T09:06:10.129Z,29.93
2023-02-16T09:08:57.383Z,31.10
2023-02-16T09:11:43.811Z,31.70
2023-02-16T09:14:30.448Z,27.37
2023-02-16T09:17:16.752Z,31.53
2023-02-16T09:20:03.561Z,39.27
2023-02-16T09:22:50.344Z,28.30
2023-02-16T09:25:39.007Z,26.47
2023-02-16T09:28:25.215Z,26.20
2023-02-16T09:31:20.372Z,34.73
2023-02-16T09:34:19.418Z,25.97
2023-02-16T09:37:05.537Z,28.03
2023-02-16T09:39:52.333Z,23.87
2023-02-16T09:42:59.841Z,32.93
2023-02-16T09:45:49.298Z,26.90
2023-02-16T09:48:42.931Z,26.80
2023-02-16T09:51:41.060Z,29.53
2023-02-16T09:54:42.378Z,27.63
2023-02-16T09:57:31.599Z,25.50
2023-02-16T10:00:27.089Z,28.27
2023-02-16T10:03:26.988Z,27.37
2023-02-16T10:06:13.634Z,29.70
2023-02-16T10:09:20.806Z,27.07
2023-02-16T10:12:11.621Z,25.43
2023-02-16T10:15:09.380Z,22.93
2023-02-16T10:18:03.315Z,25.43
2023-02-16T10:20:53.653Z,22.30
2023-02-16T10:23:55.610Z,24.30
2023-02-16T10:26:46.305Z,29.97
2023-02-16T10:29:32.854Z,27.93
2023-02-16T10:32:28.969Z,36.63
2023-02-16T10:35:20.479Z,27.23
2023-02-16T10:38:32.864Z,25.70
2023-02-16T10:41:36.973Z,26.47
2023-02-16T10:44:30.709Z,20.93
2023-02-16T10:47:40.075Z,20.67
2023-02-16T10:50:32.996Z,24.20
2023-02-16T10:53:35.341Z,26.67
2023-02-16T10:56:40.366Z,22.00
2023-02-16T10:59:44.411Z,21.00
2023-02-16T11:02:41.894Z,23.53
2023-02-16T11:05:33.288Z,24.70
2023-02-16T11:08:20.033Z,26.90
2023-02-16T11:11:12.138Z,23.80
2023-02-16T11:14:02.945Z,24.17
2023-02-16T11:17:07.394Z,20.93
2023-02-16T11:20:01.654Z,24.57
2023-02-16T11:22:48.412Z,24.23
2023-02-16T11:25:35.100Z,26.43
2023-02-16T11:28:32.076Z,30.27
2023-02-16T11:31:19.035Z,28.70
2023-02-16T11:34:24.194Z,22.90
2023-02-16T11:37:26.005Z,23.50
2023-02-16T11:40:28.918Z,22.00
2023-02-16T11:43:19.859Z,17.87
2023-02-16T11:46:18.668Z,19.17
2023-02-16T11:49:22.264Z,21.87
2023-02-16T11:52:24.227Z,19.77
2023-02-16T11:55:20.072Z,24.80
2023-02-16T11:58:14.333Z,19.60
2023-02-16T12:01:25.857Z,16.00
2023-02-16T12:04:33.647Z,15.47
2023-02-16T12:07:27.180Z,12.03
2023-02-16T12:10:22.804Z,16.63
2023-02-16T12:13:34.907Z,12.80
2023-02-16T12:16:35.209Z,10.87
2023-02-16T12:19:49.049Z,14.10
2023-02-16T12:23:29.161Z,9.53
2023-02-16T12:26:31.717Z,13.23
2023-02-16T12:29:31.025Z,13.63
2023-02-16T12:32:32.933Z,12.83
2023-02-16T12:35:31.729Z,7.67
2023-02-16T12:38:53.660Z,12.67
2023-02-16T12:41:42.853Z,8.40
2023-02-16T12:44:32.216Z,7.50
2023-02-16T12:47:26.585Z,8.13
2023-02-16T12:50:19.346Z,10.80
2023-02-16T12:53:22.426Z,7.43
2023-02-16T12:56:17.783Z,9.87
2023-02-16T12:59:24.005Z,6.63
2023-02-16T13:02:31.372Z,7.10
2023-02-16T13:05:35.837Z,10.27
2023-02-16T13:08:43.248Z,6.23
2023-02-16T13:11:37.416Z,10.30
2023-02-16T13:14:28.349Z,12.67
2023-02-16T13:17:20.997Z,6.23
2023-02-16T13:20:20.130Z,4.20
2023-02-16T13:23:24.055Z,2.93
2023-02-16T13:26:24.976Z,2.90
2023-02-16T13:29:37.414Z,6.27
2023-02-16T13:32:23.821Z,5.27
2023-02-16T13:35:41.803Z,2.20
2023-02-16T13:38:45.253Z,3.03
2023-02-16T13:41:45.731Z,3.23
2023-02-16T13:44:44.630Z,3.80
2023-02-16T13:47:37.281Z,4.00
2023-02-16T13:50:28.271Z,4.57
2023-02-16T13:53:20.917Z,4.97
2023-02-16T13:56:28.662Z,6.67
2023-02-16T13:59:22.293Z,3.53
2023-02-16T14:02:13.283Z,4.30
2023-02-16T14:05:01.634Z,3.23
2023-02-16T14:08:18.863Z,3.10
2023-02-16T14:11:10.723Z,4.10
2023-02-16T14:13:57.175Z,3.23
2023-02-16T14:16:44.017Z,3.37
2023-02-16T14:19:35.563Z,2.77
2023-02-16T14:22:57.520Z,3.93
2023-02-16T14:25:44.415Z,2.33
2023-02-16T14:28:35.313Z,2.97
2023-02-16T14:31:23.762Z,2.60
2023-02-16T14:34:36.485Z,4.23
2023-02-16T14:37:29.995Z,2.67
2023-02-16T14:40:17.691Z,4.07
2023-02-16T14:43:44.093Z,4.43
2023-02-16T14:46:52.052Z,5.20
2023-02-16T14:50:09.176Z,2.70
2023-02-16T14:53:28.335Z,2.63
2023-02-16T14:56:33.168Z,2.90
2023-02-16T14:59:46.397Z,2.03
2023-02-16T15:02:35.496Z,6.27
2023-02-16T15:05:24.748Z,14.83
2023-02-16T15:08:17.154Z,7.60
2023-02-16T15:11:16.050Z,4.57
2023-02-16T15:14:09.245Z,5.00
2023-02-16T15:16:57.997Z,3.03
2023-02-16T15:19:44.412Z,3.83
2023-02-16T15:22:30.731Z,2.60
2023-02-16T15:25:25.716Z,2.63
2023-02-16T15:28:11.951Z,3.53
2023-02-16T15:31:01.604Z,4.47
2023-02-16T15:33:58.654Z,2.97
2023-02-16T15:36:45.770Z,3.60
2023-02-16T15:39:48.327Z,4.43
2023-02-16T15:42:44.044Z,2.77
2023-02-16T15:45:37.828Z,3.13
2023-02-16T15:48:32.540Z,5.37
2023-02-16T15:51:24.912Z,3.00
2023-02-16T15:54:24.857Z,4.13
2023-02-16T15:57:31.120Z,2.33
2023-02-16T16:00:21.216Z,2.77
2023-02-16T16:03:12.486Z,4.57
2023-02-16T16:06:04.999Z,11.20
2023-02-16T16:08:51.616Z,2.87
2023-02-16T16:11:38.242Z,4.97
2023-02-16T16:14:27.021Z,3.53
2023-02-16T16:17:16.554Z,3.30
2023-02-16T16:20:41.594Z,3.50
2023-02-16T16:23:28.264Z,5.20
2023-02-16T16:26:19.702Z,4.50
2023-02-16T16:29:37.172Z,5.57
2023-02-16T16:32:28.795Z,6.43
2023-02-16T16:35:36.095Z,3.10
2023-02-16T16:38:37.032Z,3.33
2023-02-16T16:41:28.107Z,4.47
2023-02-16T16:44:35.175Z,5.20
2023-02-16T16:47:36.504Z,3.57
2023-02-16T16:50:39.714Z,4.77
2023-02-16T16:53:29.428Z,7.37
2023-02-16T16:56:16.125Z,3.17
2023-02-16T16:59:02.377Z,5.27
2023-02-16T17:01:50.307Z,4.37
2023-02-16T17:04:36.953Z,5.53
2023-02-16T17:07:23.158Z,3.87
2023-02-16T17:10:09.865Z,4.43
2023-02-16T17:12:58.884Z,3.73
2023-02-16T17:16:02.543Z,5.83
2023-02-16T17:18:48.991Z,7.67
2023-02-16T17:21:35.251Z,10.37
2023-02-16T17:24:21.962Z,8.40
2023-02-16T17:27:09.230Z,12.20
2023-02-16T17:29:55.892Z,11.50
2023-02-16T17:32:42.364Z,9.00
2023-02-16T17:35:30.912Z,8.50
2023-02-16T17:38:20.999Z,8.47
2023-02-16T17:41:07.466Z,9.50
2023-02-16T17:43:54.555Z,6.67
2023-02-16T17:46:40.721Z,6.63
2023-02-16T17:49:27.021Z,7.27
2023-02-16T17:52:13.489Z,6.23
2023-02-16T17:54:59.574Z,8.20
2023-02-16T17:57:46.008Z,20.70
2023-02-16T18:00:38.172Z,8.07
2023-02-16T18:03:25.085Z,8.23
2023-02-16T18:06:19.383Z,9.37
2023-02-16T18:09:05.462Z,13.73
2023-02-16T18:11:51.745Z,14.63
2023-02-16T18:14:38.253Z,14.13
2023-02-16T18:17:24.552Z,20.47
2023-02-16T18:20:16.049Z,17.63
2023-02-16T18:23:02.468Z,28.17
2023-02-16T18:25:48.727Z,16.53
2023-02-16T18:28:35.409Z,15.30
2023-02-16T18:31:21.770Z,21.83
2023-02-16T18:34:09.491Z,16.47
2023-02-16T18:36:55.806Z,21.40
2023-02-16T18:39:42.858Z,15.03
2023-02-16T18:42:29.296Z,14.23
2023-02-16T18:45:15.777Z,14.63
2023-02-16T18:48:02.440Z,15.90
2023-02-16T18:50:49.021Z,12.00
2023-02-16T18:53:37.609Z,11.77
2023-02-16T18:56:24.162Z,12.27
2023-02-16T18:59:10.939Z,10.30
2023-02-16T19:01:59.059Z,9.47
2023-02-16T19:04:45.728Z,7.87
2023-02-16T19:07:32.650Z,10.63
2023-02-16T19:10:19.286Z,11.37
2023-02-16T19:13:07.025Z,8.87
2023-02-16T19:15:53.513Z,10.83
2023-02-16T19:18:39.988Z,8.77
2023-02-16T19:21:26.571Z,7.43
2023-02-16T19:24:13.214Z,7.80
2023-02-16T19:26:59.760Z,9.03
2023-02-16T19:29:48.875Z,7.93
2023-02-16T19:32:35.067Z,8.53
2023-02-16T19:35:21.619Z,8.97
2023-02-16T19:38:08.103Z,9.33
2023-02-16T19:40:54.421Z,9.67
2023-02-16T19:43:42.233Z,14.80
2023-02-16T19:46:30.110Z,15.63
2023-02-16T19:49:17.061Z,16.83
2023-02-16T19:52:04.633Z,16.97
2023-02-16T19:54:50.774Z,14.23
2023-02-16T19:57:37.141Z,10.97
2023-02-16T20:00:23.412Z,13.73
2023-02-16T20:03:10.224Z,16.03
2023-02-16T20:05:56.764Z,11.87
2023-02-16T20:08:44.635Z,13.80
2023-02-16T20:11:31.931Z,14.03
2023-02-16T20:14:18.538Z,12.73
2023-02-16T20:17:04.747Z,19.33
2023-02-16T20:19:51.532Z,21.03
2023-02-16T20:22:37.997Z,30.67
2023-02-16T20:25:24.328Z,25.93
2023-02-16T20:28:10.479Z,26.80
2023-02-16T20:30:56.862Z,35.40
2023-02-16T20:33:43.429Z,37.20
2023-02-16T20:36:29.632Z,39.50
2023-02-16T20:39:16.200Z,36.37
2023-02-16T20:42:02.588Z,36.50
2023-02-16T20:44:49.053Z,39.47
2023-02-16T20:47:35.354Z,34.97
2023-02-16T20:50:21.755Z,35.07
2023-02-16T20:53:08.442Z,29.03
2023-02-16T20:56:09.504Z,27.60
2023-02-16T20:58:57.161Z,35.77
2023-02-16T21:01:50.693Z,23.47
2023-02-16T21:04:38.571Z,27.03
2023-02-16T21:07:24.835Z,27.63
2023-02-16T21:10:13.523Z,25.60
2023-02-16T21:12:59.859Z,25.83
2023-02-16T21:15:46.087Z,29.10
2023-02-16T21:18:32.818Z,22.53
2023-02-16T21:21:19.955Z,21.97
2023-02-16T21:24:06.332Z,20.80
2023-02-16T21:26:52.891Z,20.00
2023-02-16T21:29:39.695Z,23.20
2023-02-16T21:32:26.351Z,20.37
2023-02-16T21:35:12.689Z,26.87
2023-02-16T21:37:59.565Z,21.60
2023-02-16T21:41:04.459Z,22.80
2023-02-16T21:44:06.117Z,21.57
2023-02-16T21:46:52.263Z,20.00
2023-02-16T21:49:41.193Z,22.00
2023-02-16T21:52:27.758Z,20.03
2023-02-16T21:55:32.667Z,22.60
2023-02-16T21:58:18.806Z,17.03
2023-02-16T22:01:05.270Z,11.70
2023-02-16T22:03:58.443Z,8.37
2023-02-16T22:06:47.658Z,9.47
2023-02-16T22:09:34.541Z,11.40
2023-02-16T22:12:23.226Z,7.53
2023-02-16T22:15:09.725Z,6.50
2023-02-16T22:17:56.318Z,6.27
2023-02-16T22:20:42.911Z,12.03
2023-02-16T22:23:29.491Z,3.70
2023-02-16T22:26:22.605Z,8.03
2023-02-16T22:29:09.821Z,4.77
2023-02-16T22:31:56.001Z,5.03
2023-02-16T22:34:42.324Z,5.40
2023-02-16T22:37:28.628Z,6.07
2023-02-16T22:40:15.397Z,9.33
2023-02-16T22:43:01.792Z,7.87
2023-02-16T22:45:48.159Z,4.93
2023-02-16T22:48:35.808Z,5.07
2023-02-16T22:51:22.140Z,8.33
2023-02-16T22:54:08.444Z,6.87
2023-02-16T22:56:55.024Z,5.43
2023-02-16T22:59:41.417Z,5.60
2023-02-16T23:02:28.039Z,4.43
2023-02-16T23:05:14.140Z,3.77
2023-02-16T23:08:00.481Z,6.17
2023-02-16T23:10:59.855Z,4.70
2023-02-16T23:13:45.908Z,2.80
2023-02-16T23:16:32.534Z,6.13
2023-02-16T23:19:22.198Z,3.10
2023-02-16T23:22:08.601Z,5.33
2023-02-16T23:25:14.904Z,4.33
2023-02-16T23:28:03.503Z,4.10
2023-02-16T23:30:49.934Z,4.23
2023-02-16T23:33:36.397Z,6.03
2023-02-16T23:36:22.685Z,5.10
2023-02-16T23:39:12.457Z,4.80
2023-02-16T23:41:59.074Z,6.73
2023-02-16T23:44:45.577Z,5.80
2023-02-16T23:47:32.271Z,3.67
2023-02-16T23:50:18.504Z,6.83
2023-02-16T23:53:04.532Z,3.73
2023-02-16T23:56:28.128Z,3.27
2023-02-16T23:59:14.357Z,4.20
